Boyes Hot Springs, CA (95416)

10:33 AM PDT on May 23, 2017 (GMT -0700)
Boyes Hot Springs Fruit Basket | | Change Station

Elev 144 ft 38.31 °N, 122.48 °W | Updated 2 minutes ago

Clear
Clear
77.2 °F
Feels Like 79 °F
N
2.0
Wind Variable Wind from ESE
Gusts 3.7 mph

Today
High -- | Low -- °F
--% Chance of Precip.
Yesterday
High -- | Low -- °F
Precip. -- in
Pressure 29.95 in
Visibility 10.0 miles
Clouds Clear
Heat Index 79 °F
Dew Point 58 °F
Humidity 51%
Rainfall 0.00 in
Snow Depth Not available.
5:52 AM 8:21 PM
Waning Crescent, 7% visible
METAR KAPC 231654Z VRB06KT 10SM CLR 17/12 A2997 RMK AO2 SLP141 T01720122
Pressure 29.95 in
Visibility 10.0 miles
Clouds Clear
Heat Index 79 °F
Dew Point 58 °F
Humidity 51%
Rainfall 0.00 in
Snow Depth Not available.
5:52 AM 8:21 PM
Waning Crescent, 7% visible
METAR KAPC 231654Z VRB06KT 10SM CLR 17/12 A2997 RMK AO2 SLP141 T01720122

Get Severe Weather Alerts

Thanks for signing up!

Be on the lookout for a verification email in your inbox.

You'll start receiving the daily forecast at 6 AM.

×

10-Day Weather Forecast

Almanac

Astronomy

May. 23, 2017 Rise Set
Actual Time
Civil Twilight
Nautical Twilight
Astronomical Twilight
Moon
Length of Visible Light
Length of Day
Tomorrow will be .
, % of the Moon is Illuminated

Today's Extremes

State Highs State Lows

Community

WunderPhotos

Category 6

Welcome to Category 6. This is the collective home for Weather Underground's featured writeups by Dr. Jeff Masters (right), Bob Henson (left), Chris Burt, and other regular contributors.

Nearby

Air Quality

  Air Quality AQ Index Pollutant
Not available.

Snow Depth

Station Depth Elevation

Earthquake Activity

City Distance Mag. Time & Date
Minimum magnitude displayed is 2.5.

Coastal Water Temperatures

Place Temperature

Stations

Nearby Weather Stations

Station Location Temp. Windchill Dew Point Humidity Wind Precip. Elev Updated Type
                   

Watches & Warnings

There are currently no watches in effect.